Time;durP1;ratioP1;P1;durP2;ratioP2;P2;SDS_P1;SDS_P2;PMS_P1;PMS_P2;Temp;Humidity;BMP_temperature;BMP_pressure;BME280_temperature;BME280_humidity;BME280_pressure;Samples;Min_cycle;Max_cycle;Signal;HPM_P1;HPM_P2
2022/05/16 00:00:21;;;;;;;3.80;1.83;;;10.70;82.30;;;;;;5045486;28;21722;-78
2022/05/16 00:02:48;;;;;;;3.40;1.83;;;10.70;83.00;;;;;;5073164;28;20218;-79
2022/05/16 00:05:15;;;;;;;4.27;1.70;;;10.50;83.00;;;;;;5042300;28;21016;-78
2022/05/16 00:07:41;;;;;;;4.47;1.73;;;10.60;83.50;;;;;;5042569;28;20241;-79
2022/05/16 00:10:10;;;;;;;4.67;1.50;;;10.60;83.80;;;;;;5040208;28;20901;-79
2022/05/16 00:12:37;;;;;;;3.47;1.70;;;10.60;84.30;;;;;;5046788;28;20227;-79
2022/05/16 00:15:06;;;;;;;3.07;1.60;;;10.50;84.60;;;;;;5039639;28;20331;-80
2022/05/16 00:17:32;;;;;;;4.13;1.93;;;10.50;85.20;;;;;;5040513;28;20233;-77
2022/05/16 00:19:59;;;;;;;4.67;2.00;;;10.50;85.40;;;;;;5036938;28;20220;-77
2022/05/16 00:22:26;;;;;;;5.53;2.10;;;10.40;85.90;;;;;;5046389;28;20230;-77
2022/05/16 00:24:52;;;;;;;4.80;1.90;;;10.40;86.40;;;;;;5070577;28;20227;-79
2022/05/16 00:27:20;;;;;;;4.13;1.80;;;10.40;86.90;;;;;;5043635;28;20607;-79
2022/05/16 00:29:47;;;;;;;4.10;1.60;;;10.40;87.60;;;;;;5044366;28;20223;-78
2022/05/16 00:32:16;;;;;;;4.67;1.90;;;10.40;87.70;;;;;;5041883;28;20228;-78
2022/05/16 00:34:42;;;;;;;7.00;2.70;;;10.30;87.90;;;;;;5039261;28;20330;-78
2022/05/16 00:37:09;;;;;;;3.03;1.60;;;10.30;88.20;;;;;;5046869;28;20846;-79
2022/05/16 00:39:36;;;;;;;7.60;2.07;;;10.30;88.40;;;;;;5042830;28;20654;-78
2022/05/16 00:42:03;;;;;;;5.50;2.03;;;10.30;88.70;;;;;;5044587;28;20228;-79
2022/05/16 00:44:33;;;;;;;5.00;1.83;;;10.20;88.80;;;;;;5041569;28;20269;-79
2022/05/16 00:46:59;;;;;;;4.87;2.03;;;10.20;89.60;;;;;;5038519;28;20717;-78
2022/05/16 00:49:29;;;;;;;2.80;2.00;;;10.10;89.80;;;;;;5042990;28;20228;-79
2022/05/16 00:51:59;;;;;;;3.70;1.80;;;10.10;90.30;;;;;;5040196;28;20232;-78
2022/05/16 00:54:31;;;;;;;4.37;2.17;;;10.10;90.60;;;;;;5039131;28;20223;-78
2022/05/16 00:57:01;;;;;;;4.17;2.03;;;10.10;90.70;;;;;;5039146;28;20224;-79
2022/05/16 00:59:38;;;;;;;3.60;1.70;;;10.00;91.00;;;;;;5037050;28;20226;-78
2022/05/16 01:04:50;;;;;;;3.20;2.10;;;9.90;90.80;;;;;;5040568;28;20220;-78
2022/05/16 01:07:25;;;;;;;5.57;2.10;;;9.90;90.90;;;;;;5041165;28;20274;-78
2022/05/16 01:09:52;;;;;;;3.40;2.00;;;9.90;91.50;;;;;;5043177;28;21049;-78
2022/05/16 01:12:18;;;;;;;4.03;2.17;;;9.90;91.40;;;;;;5051908;28;20246;-78
2022/05/16 01:14:51;;;;;;;3.83;1.83;;;9.80;91.30;;;;;;5040704;28;20232;-78
2022/05/16 01:17:18;;;;;;;4.73;2.00;;;9.80;91.70;;;;;;5040028;28;20243;-77
2022/05/16 01:19:45;;;;;;;4.93;2.10;;;9.80;91.60;;;;;;5043143;28;20841;-77
2022/05/16 01:22:25;;;;;;;4.03;2.00;;;9.70;91.90;;;;;;5046441;28;20225;-77
2022/05/16 01:24:53;;;;;;;3.47;1.93;;;9.70;92.80;;;;;;5041530;28;20215;-77
2022/05/16 01:27:20;;;;;;;5.67;2.07;;;9.70;92.40;;;;;;5042073;28;20227;-77
2022/05/16 01:29:47;;;;;;;5.93;2.27;;;9.60;92.40;;;;;;5044512;28;20216;-77
2022/05/16 01:32:13;;;;;;;5.37;2.30;;;9.60;92.70;;;;;;5041168;28;20228;-78
2022/05/16 01:34:40;;;;;;;4.93;2.00;;;9.60;92.80;;;;;;5041782;28;20846;-78
2022/05/16 01:37:08;;;;;;;4.10;1.93;;;9.60;93.00;;;;;;5043983;28;20216;-77
2022/05/16 01:39:36;;;;;;;4.93;2.20;;;9.50;93.10;;;;;;5041134;28;20254;-77
2022/05/16 01:42:03;;;;;;;3.93;1.90;;;9.50;93.40;;;;;;5041019;28;20335;-77
2022/05/16 01:44:30;;;;;;;4.37;2.20;;;9.50;93.40;;;;;;5043870;28;20224;-78
2022/05/16 01:46:57;;;;;;;5.03;2.40;;;9.50;93.50;;;;;;5044578;28;20223;-78
2022/05/16 01:49:24;;;;;;;5.90;2.30;;;9.50;93.60;;;;;;5043862;28;20216;-78
2022/05/16 01:51:51;;;;;;;9.17;2.40;;;9.50;93.70;;;;;;5049356;28;20414;-78
2022/05/16 01:54:18;;;;;;;4.70;1.80;;;9.50;93.80;;;;;;5041733;28;20224;-77
2022/05/16 01:56:46;;;;;;;4.80;2.30;;;9.50;93.90;;;;;;5042669;28;20297;-78
2022/05/16 01:59:13;;;;;;;4.10;2.43;;;9.40;94.10;;;;;;5057440;28;20307;-78
2022/05/16 02:01:39;;;;;;;5.50;2.03;;;9.50;94.00;;;;;;5044005;28;20341;-77
2022/05/16 02:04:06;;;;;;;6.33;2.33;;;9.40;94.10;;;;;;5047750;28;20302;-78
2022/05/16 02:06:33;;;;;;;5.60;2.20;;;9.50;94.30;;;;;;5043452;28;20240;-78
2022/05/16 02:08:59;;;;;;;6.67;2.47;;;9.40;94.30;;;;;;5043535;28;20232;-78
2022/05/16 02:11:26;;;;;;;4.77;2.30;;;9.40;94.40;;;;;;5043504;28;20434;-78
2022/05/16 02:13:55;;;;;;;4.40;1.83;;;9.40;94.50;;;;;;5045606;28;20220;-78
2022/05/16 02:16:22;;;;;;;3.27;2.43;;;9.40;94.60;;;;;;5044608;28;20220;-78
2022/05/16 02:18:48;;;;;;;6.73;2.37;;;9.40;94.60;;;;;;5048200;28;20303;-77
2022/05/16 02:26:46;;;;;;;5.77;2.80;;;9.30;94.80;;;;;;5045700;28;20826;-78
2022/05/16 02:29:16;;;;;;;5.60;2.50;;;9.30;94.90;;;;;;5039724;28;20256;-77
2022/05/16 02:31:43;;;;;;;6.13;2.83;;;9.30;95.10;;;;;;5042151;28;20801;-76
2022/05/16 02:34:10;;;;;;;4.80;2.43;;;9.30;95.00;;;;;;5040534;28;21077;-76
2022/05/16 02:36:36;;;;;;;5.43;2.30;;;9.30;95.10;;;;;;5044771;28;20293;-76
2022/05/16 02:39:03;;;;;;;7.90;2.60;;;9.30;95.20;;;;;;5042843;28;20220;-76
2022/05/16 02:41:30;;;;;;;4.17;2.43;;;9.30;95.40;;;;;;5042428;28;21214;-77
2022/05/16 02:43:57;;;;;;;5.60;2.37;;;9.30;95.40;;;;;;5037219;28;20227;-78
2022/05/16 02:46:25;;;;;;;3.60;2.43;;;9.30;95.40;;;;;;5045427;28;20222;-79
2022/05/16 02:48:52;;;;;;;6.43;2.83;;;9.20;95.60;;;;;;5047687;28;20284;-78
2022/05/16 02:51:19;;;;;;;5.17;2.50;;;9.20;95.60;;;;;;5045802;28;20752;-78
2022/05/16 02:53:45;;;;;;;7.67;2.83;;;9.20;95.70;;;;;;5044943;28;20223;-78
2022/05/16 02:56:12;;;;;;;4.83;2.63;;;9.20;95.70;;;;;;5045907;28;20224;-78
2022/05/16 02:58:40;;;;;;;5.60;2.20;;;9.20;95.70;;;;;;5042992;28;20308;-79
2022/05/16 03:01:07;;;;;;;7.50;2.87;;;9.20;95.70;;;;;;5048065;28;20228;-79
2022/05/16 03:03:35;;;;;;;4.13;2.37;;;9.20;95.80;;;;;;5038732;28;20220;-78
2022/05/16 03:06:02;;;;;;;4.33;2.30;;;9.20;96.10;;;;;;5042734;28;20220;-78
2022/05/16 03:08:29;;;;;;;6.07;2.60;;;9.20;96.10;;;;;;5044557;28;20231;-79
2022/05/16 03:10:57;;;;;;;6.10;2.50;;;9.10;96.00;;;;;;5045945;28;20230;-77
2022/05/16 03:13:24;;;;;;;5.33;2.43;;;9.10;96.10;;;;;;5043122;28;20224;-77
2022/05/16 03:15:50;;;;;;;5.53;2.60;;;9.10;96.20;;;;;;5041704;28;20788;-77
2022/05/16 03:18:17;;;;;;;5.80;2.70;;;9.10;96.30;;;;;;5043295;28;20219;-78
2022/05/16 03:20:45;;;;;;;5.87;2.50;;;9.10;96.30;;;;;;5046512;28;20285;-78
2022/05/16 03:23:12;;;;;;;6.03;2.40;;;9.10;96.30;;;;;;5044282;28;20286;-79
2022/05/16 03:25:39;;;;;;;6.63;2.60;;;9.10;96.30;;;;;;5042301;28;20304;-79
2022/05/16 03:28:06;;;;;;;5.80;2.57;;;9.10;96.30;;;;;;5042432;28;20255;-78
2022/05/16 03:30:33;;;;;;;4.40;2.23;;;9.00;96.30;;;;;;5045777;28;20755;-79
2022/05/16 03:33:00;;;;;;;5.63;2.40;;;9.00;96.50;;;;;;5044565;28;20278;-77
2022/05/16 03:35:27;;;;;;;9.40;2.80;;;9.10;96.60;;;;;;5043090;28;20227;-77
2022/05/16 03:37:54;;;;;;;4.43;2.20;;;9.00;96.70;;;;;;5043073;28;20695;-77
2022/05/16 03:43:06;;;;;;;8.37;2.67;;;9.10;96.70;;;;;;5040009;28;20308;-77
2022/05/16 03:45:32;;;;;;;4.83;2.30;;;9.10;96.60;;;;;;5042542;28;20225;-77
2022/05/16 03:47:59;;;;;;;8.07;2.43;;;9.10;96.50;;;;;;5044647;28;20215;-77
2022/05/16 03:50:26;;;;;;;3.67;2.00;;;9.10;96.70;;;;;;5037367;28;20238;-76
2022/05/16 03:52:53;;;;;;;6.30;2.40;;;9.10;96.80;;;;;;5042987;28;20239;-77
2022/05/16 03:55:21;;;;;;;5.43;2.40;;;9.10;96.90;;;;;;5041128;28;20359;-78
2022/05/16 03:57:48;;;;;;;4.63;2.33;;;9.10;97.10;;;;;;5041096;28;20232;-78
2022/05/16 04:00:17;;;;;;;5.20;2.60;;;9.20;97.10;;;;;;5040677;28;20220;-78
2022/05/16 04:02:44;;;;;;;4.93;2.47;;;9.20;97.10;;;;;;5040904;28;20231;-78
2022/05/16 04:05:15;;;;;;;5.80;2.73;;;9.20;97.10;;;;;;5040072;28;20220;-77
2022/05/16 04:07:42;;;;;;;7.07;2.63;;;9.20;97.20;;;;;;5044730;28;20215;-77
2022/05/16 04:10:09;;;;;;;6.23;2.60;;;9.30;97.20;;;;;;5035573;28;20228;-78
2022/05/16 04:12:37;;;;;;;4.40;2.30;;;9.20;97.20;;;;;;5045253;28;20301;-77
2022/05/16 04:15:06;;;;;;;6.63;2.83;;;9.30;97.30;;;;;;5041946;28;20250;-78
2022/05/16 04:17:33;;;;;;;5.80;2.80;;;9.30;97.20;;;;;;5042777;28;20275;-76
2022/05/16 04:20:00;;;;;;;4.83;2.30;;;9.30;97.20;;;;;;5041786;28;20215;-76
2022/05/16 04:22:27;;;;;;;6.40;2.70;;;9.40;97.20;;;;;;5039837;28;21161;-74
2022/05/16 04:24:54;;;;;;;5.87;2.47;;;9.40;97.30;;;;;;5039944;28;20234;-75
2022/05/16 04:27:21;;;;;;;4.03;2.20;;;9.40;97.50;;;;;;5039926;28;20224;-76
2022/05/16 04:29:49;;;;;;;4.17;2.33;;;9.50;97.40;;;;;;5037831;28;20239;-76
2022/05/16 04:32:15;;;;;;;5.40;2.57;;;9.50;97.60;;;;;;5038577;28;20228;-78
2022/05/16 04:34:43;;;;;;;7.80;2.70;;;9.50;97.50;;;;;;5038296;28;20316;-77
2022/05/16 04:37:09;;;;;;;5.80;2.53;;;9.60;97.60;;;;;;5046271;28;20232;-77
2022/05/16 04:39:36;;;;;;;5.73;2.57;;;9.60;97.60;;;;;;5044478;28;20327;-77
2022/05/16 04:44:49;;;;;;;4.63;2.33;;;9.80;97.80;;;;;;5038134;28;20262;-77
2022/05/16 04:47:16;;;;;;;8.33;2.93;;;9.90;97.60;;;;;;5038934;28;20221;-76
2022/05/16 04:49:42;;;;;;;7.67;2.77;;;10.00;97.60;;;;;;5038588;28;20701;-77
2022/05/16 04:52:11;;;;;;;7.10;2.90;;;10.00;97.50;;;;;;5041517;28;20251;-77
2022/05/16 04:54:37;;;;;;;5.00;2.47;;;10.10;97.50;;;;;;5038668;28;20217;-76
2022/05/16 04:57:05;;;;;;;4.33;1.87;;;10.10;97.40;;;;;;5044800;28;20212;-77
2022/05/16 04:59:32;;;;;;;5.97;2.50;;;10.20;97.40;;;;;;5039360;28;20227;-77
2022/05/16 05:02:00;;;;;;;7.47;2.43;;;10.20;97.40;;;;;;5041179;28;20315;-78
2022/05/16 05:04:26;;;;;;;6.43;2.47;;;10.30;97.30;;;;;;5040287;28;20725;-76
2022/05/16 05:06:53;;;;;;;5.67;2.27;;;10.30;97.20;;;;;;5041691;28;20225;-76
2022/05/16 05:09:20;;;;;;;6.37;2.33;;;10.40;97.20;;;;;;5042259;28;20229;-76
2022/05/16 05:14:34;;;;;;;7.40;2.47;;;10.50;97.20;;;;;;5044973;28;20231;-77
2022/05/16 05:17:03;;;;;;;6.87;3.00;;;10.50;97.20;;;;;;5037558;28;20221;-76
2022/05/16 05:19:30;;;;;;;6.57;2.67;;;10.60;97.20;;;;;;5063300;28;20320;-78
2022/05/16 05:21:57;;;;;;;6.73;2.30;;;10.70;97.10;;;;;;5043147;28;20219;-79
2022/05/16 05:24:24;;;;;;;7.10;2.70;;;10.70;97.20;;;;;;5041470;28;21089;-77
2022/05/16 05:26:51;;;;;;;6.67;2.70;;;10.80;97.10;;;;;;5041437;28;20217;-76
2022/05/16 05:29:18;;;;;;;4.30;2.10;;;10.80;97.00;;;;;;5042014;28;20239;-77
2022/05/16 05:31:46;;;;;;;6.27;2.83;;;10.90;97.20;;;;;;5040109;28;20236;-77
2022/05/16 05:34:14;;;;;;;4.53;2.30;;;10.90;97.10;;;;;;5042528;28;20257;-78
2022/05/16 05:36:43;;;;;;;6.67;2.57;;;10.90;97.10;;;;;;5043837;28;20227;-77
2022/05/16 05:39:12;;;;;;;6.70;2.30;;;11.00;97.10;;;;;;5046670;28;20270;-77
2022/05/16 05:41:39;;;;;;;5.60;2.17;;;11.10;97.00;;;;;;5042588;28;20262;-78
2022/05/16 05:44:06;;;;;;;4.83;2.40;;;11.10;97.00;;;;;;5039126;28;20268;-78
2022/05/16 05:46:35;;;;;;;5.10;2.20;;;11.20;97.00;;;;;;5042907;28;20230;-77
2022/05/16 05:49:03;;;;;;;7.83;2.50;;;11.30;97.00;;;;;;5042195;28;20315;-77
2022/05/16 05:51:31;;;;;;;5.20;2.40;;;11.40;97.30;;;;;;5043645;28;20645;-77
2022/05/16 05:53:58;;;;;;;3.77;2.20;;;11.40;97.00;;;;;;5041179;28;20743;-77
2022/05/16 05:56:24;;;;;;;5.20;2.40;;;11.50;97.00;;;;;;5040914;28;20218;-77
2022/05/16 05:58:51;;;;;;;5.10;2.57;;;11.60;96.90;;;;;;5040225;28;20311;-77
2022/05/16 06:01:18;;;;;;;4.93;2.47;;;11.60;96.80;;;;;;5036965;28;20232;-77
2022/05/16 06:03:44;;;;;;;5.20;2.53;;;11.70;96.80;;;;;;5042155;28;20227;-77
2022/05/16 06:06:11;;;;;;;5.70;2.40;;;11.80;96.80;;;;;;5043370;28;20217;-78
2022/05/16 06:08:39;;;;;;;4.60;1.90;;;11.90;96.60;;;;;;5074415;28;20234;-77
2022/05/16 06:11:06;;;;;;;5.37;2.10;;;12.00;96.60;;;;;;5041795;28;20247;-77
2022/05/16 06:13:33;;;;;;;6.90;1.93;;;12.10;96.60;;;;;;5041606;28;20224;-77
2022/05/16 06:16:00;;;;;;;6.40;2.23;;;12.20;96.40;;;;;;5050308;28;20842;-77
2022/05/16 06:18:27;;;;;;;5.53;2.43;;;12.30;96.20;;;;;;5042091;28;20931;-77
2022/05/16 06:20:53;;;;;;;4.17;2.00;;;12.40;96.20;;;;;;5046071;28;20234;-77
2022/05/16 06:23:20;;;;;;;8.40;2.17;;;12.50;96.30;;;;;;5029446;28;20648;-77
2022/05/16 06:25:48;;;;;;;5.17;2.20;;;12.60;96.20;;;;;;5043119;28;20643;-78
2022/05/16 06:28:20;;;;;;;6.70;2.30;;;12.70;96.00;;;;;;5044067;28;20230;-79
2022/05/16 06:30:50;;;;;;;6.00;2.33;;;12.80;95.80;;;;;;5050835;28;20261;-78
2022/05/16 06:33:18;;;;;;;8.47;2.50;;;12.90;95.60;;;;;;5038520;28;20319;-79
2022/05/16 06:35:45;;;;;;;6.67;2.30;;;12.90;95.60;;;;;;5044890;28;20216;-78
2022/05/16 06:38:14;;;;;;;5.03;2.53;;;13.00;95.50;;;;;;5045627;28;20226;-78
2022/05/16 06:40:43;;;;;;;5.27;2.27;;;13.10;95.40;;;;;;5045141;28;20231;-78
2022/05/16 06:43:11;;;;;;;6.77;2.23;;;13.20;95.40;;;;;;5045223;28;20575;-79
2022/05/16 06:45:38;;;;;;;6.87;2.27;;;13.30;95.20;;;;;;5045293;28;20232;-78
2022/05/16 06:48:05;;;;;;;5.87;2.37;;;13.50;95.00;;;;;;5043623;28;20235;-78
2022/05/16 06:50:33;;;;;;;5.47;2.17;;;13.70;94.80;;;;;;5045198;28;20232;-78
2022/05/16 06:53:02;;;;;;;4.63;2.37;;;13.90;94.80;;;;;;5047007;28;20216;-77
2022/05/16 06:55:28;;;;;;;4.87;2.27;;;14.10;94.60;;;;;;5038403;28;20254;-78
2022/05/16 06:57:55;;;;;;;4.97;2.17;;;14.30;94.50;;;;;;5047301;28;20714;-79
2022/05/16 07:00:24;;;;;;;4.87;1.83;;;14.60;94.70;;;;;;5044160;28;20223;-79
2022/05/16 07:02:54;;;;;;;4.90;2.27;;;15.10;94.60;;;;;;5044326;28;20565;-79
2022/05/16 07:05:21;;;;;;;5.30;2.10;;;15.70;93.90;;;;;;5044491;28;20224;-79
2022/05/16 07:07:47;;;;;;;6.47;2.80;;;16.40;93.70;;;;;;5048568;28;20224;-79
2022/05/16 07:10:14;;;;;;;4.20;2.15;;;17.20;92.80;;;;;;5045480;28;20309;-79
2022/05/16 07:12:41;;;;;;;6.30;2.10;;;18.00;92.00;;;;;;5046797;28;20725;-79
2022/05/16 07:15:10;;;;;;;4.00;2.03;;;18.80;91.20;;;;;;5042936;28;20224;-79
2022/05/16 07:17:39;;;;;;;4.50;2.50;;;19.60;89.80;;;;;;5045378;28;20966;-78
2022/05/16 07:20:07;;;;;;;5.15;2.35;;;20.30;86.70;;;;;;5044757;28;20234;-79
2022/05/16 07:22:33;;;;;;;4.07;2.05;;;21.00;85.60;;;;;;5044863;28;20239;-78
2022/05/16 07:25:00;;;;;;;3.58;1.80;;;21.70;83.70;;;;;;5045456;28;20798;-79
2022/05/16 07:30:12;;;;;;;4.22;1.90;;;23.20;79.00;;;;;;5043920;28;20333;-80
2022/05/16 07:32:43;;;;;;;5.65;1.98;;;23.90;76.90;;;;;;5047241;28;20915;-79
2022/05/16 07:35:12;;;;;;;5.18;2.17;;;24.40;73.90;;;;;;5040906;28;20219;-79
2022/05/16 07:37:39;;;;;;;5.22;2.58;;;24.90;72.10;;;;;;5072679;28;20231;-80
2022/05/16 07:40:09;;;;;;;3.55;2.08;;;25.20;70.80;;;;;;5045697;28;20223;-80
2022/05/16 07:42:35;;;;;;;5.25;2.10;;;25.50;68.20;;;;;;5041313;28;20651;-80
2022/05/16 07:45:03;;;;;;;4.22;1.85;;;25.60;67.40;;;;;;5047631;28;20241;-79
2022/05/16 07:47:31;;;;;;;5.47;2.30;;;25.70;66.40;;;;;;5045577;28;20299;-79
2022/05/16 07:50:00;;;;;;;4.18;1.92;;;25.70;65.70;;;;;;5048472;28;20220;-79
2022/05/16 07:52:28;;;;;;;3.75;1.85;;;25.60;64.60;;;;;;5052020;28;20228;-79
2022/05/16 07:54:55;;;;;;;4.00;1.90;;;25.60;64.90;;;;;;5034635;28;20331;-79
2022/05/16 07:57:22;;;;;;;3.55;2.00;;;25.50;64.50;;;;;;5048278;28;20231;-80
2022/05/16 07:59:49;;;;;;;5.63;1.85;;;25.50;64.60;;;;;;5044331;28;20274;-81
2022/05/16 08:02:16;;;;;;;4.45;2.00;;;25.40;64.40;;;;;;5043614;28;20227;-78
2022/05/16 08:04:43;;;;;;;4.95;2.35;;;25.50;64.20;;;;;;5045360;28;20808;-79
2022/05/16 08:07:11;;;;;;;3.35;1.77;;;25.70;63.90;;;;;;5047656;28;20833;-80
2022/05/16 08:12:26;;;;;;;6.45;1.70;;;25.90;62.20;;;;;;5044101;28;20228;-79
2022/05/16 08:14:53;;;;;;;5.47;2.00;;;26.00;60.80;;;;;;5040271;28;20255;-79
2022/05/16 08:17:21;;;;;;;2.55;1.65;;;26.10;60.90;;;;;;5039616;28;20221;-79
2022/05/16 08:19:48;;;;;;;5.60;2.13;;;26.20;60.90;;;;;;5041743;28;20239;-78
2022/05/16 08:22:17;;;;;;;4.03;1.70;;;26.30;60.40;;;;;;5046394;28;20242;-79
2022/05/16 08:24:44;;;;;;;4.30;1.75;;;26.40;61.30;;;;;;5044142;28;20642;-79
2022/05/16 08:27:11;;;;;;;7.00;2.25;;;26.60;60.20;;;;;;5037783;28;20224;-79
2022/05/16 08:29:38;;;;;;;3.80;2.35;;;26.90;60.70;;;;;;5046069;28;20272;-79
2022/05/16 08:32:06;;;;;;;4.45;2.13;;;27.20;58.80;;;;;;5044579;28;20234;-79
2022/05/16 08:34:33;;;;;;;4.60;1.83;;;27.40;58.20;;;;;;5040869;28;20334;-79
2022/05/16 08:39:54;;;;;;;5.93;1.70;;;27.30;57.20;;;;;;5044533;28;20212;-79
2022/05/16 08:42:26;;;;;;;5.00;1.73;;;27.20;57.20;;;;;;5038219;28;20248;-79
2022/05/16 08:44:59;;;;;;;4.75;1.80;;;27.20;57.60;;;;;;5042574;28;20224;-79
2022/05/16 08:47:38;;;;;;;4.20;1.90;;;27.50;57.00;;;;;;5042575;28;20239;-79
2022/05/16 08:50:09;;;;;;;3.33;1.83;;;27.90;56.80;;;;;;5046627;28;20220;-79
2022/05/16 08:52:40;;;;;;;5.22;2.40;;;28.30;56.30;;;;;;5035673;28;20228;-79
2022/05/16 08:55:16;;;;;;;4.75;2.08;;;28.60;55.50;;;;;;5042322;28;20222;-79
2022/05/16 08:57:53;;;;;;;3.58;1.75;;;28.90;55.00;;;;;;5045208;28;20234;-79
2022/05/16 09:00:28;;;;;;;4.53;1.90;;;29.10;54.10;;;;;;5043696;28;20377;-79
2022/05/16 09:02:57;;;;;;;3.55;1.75;;;29.40;54.00;;;;;;5043847;28;20223;-79
2022/05/16 09:05:29;;;;;;;4.90;1.90;;;29.70;53.60;;;;;;5040701;28;20270;-79
2022/05/16 09:07:57;;;;;;;2.95;1.45;;;30.00;53.00;;;;;;5048176;28;20228;-79
2022/05/16 09:10:29;;;;;;;2.53;1.50;;;30.40;52.60;;;;;;5046390;28;20223;-79
2022/05/16 09:13:02;;;;;;;4.82;1.70;;;30.50;51.60;;;;;;5045514;28;20227;-79
2022/05/16 09:15:39;;;;;;;4.03;1.80;;;30.70;50.80;;;;;;5041709;28;20224;-79
2022/05/16 09:18:19;;;;;;;7.38;1.73;;;30.80;49.80;;;;;;5038715;28;20227;-79
2022/05/16 09:20:53;;;;;;;4.95;1.80;;;30.80;49.80;;;;;;5042292;28;20402;-80
2022/05/16 09:23:32;;;;;;;3.08;1.63;;;30.90;49.30;;;;;;5048859;28;20306;-79
2022/05/16 09:26:05;;;;;;;3.63;1.70;;;31.00;49.40;;;;;;5043211;28;20219;-79
2022/05/16 09:28:35;;;;;;;3.63;1.65;;;31.20;48.70;;;;;;5044671;28;20269;-79
2022/05/16 09:31:13;;;;;;;1.77;1.30;;;31.20;48.90;;;;;;5040548;28;20296;-80
2022/05/16 09:33:46;;;;;;;6.82;1.73;;;31.30;48.20;;;;;;5043815;28;20234;-79
2022/05/16 09:36:15;;;;;;;2.97;1.50;;;31.30;47.90;;;;;;5045338;28;20255;-79
2022/05/16 09:38:44;;;;;;;2.97;1.33;;;31.40;48.40;;;;;;5045768;28;20266;-79
2022/05/16 09:41:20;;;;;;;6.65;2.20;;;31.50;48.20;;;;;;5043570;28;21039;-79
2022/05/16 09:44:03;;;;;;;5.15;1.80;;;31.70;47.60;;;;;;5044035;28;20223;-79
2022/05/16 09:46:33;;;;;;;3.90;1.80;;;31.90;47.60;;;;;;5039413;28;20228;-79
2022/05/16 09:49:06;;;;;;;3.53;1.70;;;32.10;47.60;;;;;;5043564;28;20235;-79
2022/05/16 09:51:44;;;;;;;2.65;1.38;;;32.30;46.40;;;;;;5043484;28;20311;-78
2022/05/16 09:54:15;;;;;;;6.07;1.60;;;32.40;46.10;;;;;;5043626;28;20216;-79
2022/05/16 09:57:08;;;;;;;3.33;1.88;;;32.60;46.10;;;;;;5043105;28;20240;-80
2022/05/16 09:59:39;;;;;;;4.25;1.65;;;32.70;46.00;;;;;;5048897;28;20211;-79
2022/05/16 10:02:15;;;;;;;4.35;1.50;;;33.00;46.00;;;;;;5046753;28;20783;-79
2022/05/16 10:04:44;;;;;;;2.97;1.67;;;33.10;44.80;;;;;;5044614;28;20247;-79
2022/05/16 10:07:11;;;;;;;4.30;1.90;;;33.30;44.20;;;;;;5047096;28;20222;-79
2022/05/16 10:09:42;;;;;;;3.40;1.75;;;33.40;44.50;;;;;;5051183;28;20228;-79
2022/05/16 10:12:14;;;;;;;3.03;1.65;;;33.40;43.80;;;;;;5041777;28;20252;-79
2022/05/16 10:14:42;;;;;;;3.38;1.80;;;33.40;44.10;;;;;;5045246;28;20228;-79
2022/05/16 10:17:11;;;;;;;7.35;2.13;;;33.40;44.10;;;;;;5053968;28;20265;-79
2022/05/16 10:19:40;;;;;;;3.53;1.60;;;33.40;44.10;;;;;;5050707;28;20230;-80
2022/05/16 10:22:11;;;;;;;2.42;1.67;;;33.50;43.80;;;;;;5046622;28;20235;-80
2022/05/16 10:24:44;;;;;;;4.15;1.80;;;33.60;43.70;;;;;;5046654;28;20230;-80
2022/05/16 10:27:28;;;;;;;5.00;1.90;;;33.70;42.90;;;;;;5045909;28;20744;-79
2022/05/16 10:29:56;;;;;;;3.08;1.48;;;34.00;42.50;;;;;;5047768;28;20296;-80
2022/05/16 10:35:21;;;;;;;1.92;1.30;;;34.30;41.70;;;;;;5043057;28;20245;-80
2022/05/16 10:37:53;;;;;;;5.25;1.67;;;34.40;41.40;;;;;;5048687;28;20220;-80
2022/05/16 10:40:27;;;;;;;4.20;1.63;;;34.30;41.10;;;;;;5047250;28;20220;-80
2022/05/16 10:43:08;;;;;;;2.70;1.45;;;34.30;41.40;;;;;;5044338;28;20226;-80
2022/05/16 10:45:36;;;;;;;4.13;1.58;;;34.30;41.10;;;;;;5042125;28;20246;-80
2022/05/16 10:48:14;;;;;;;2.60;1.55;;;34.30;40.80;;;;;;5046708;28;20718;-79
2022/05/16 10:50:48;;;;;;;3.28;1.60;;;34.40;40.70;;;;;;5047007;28;20228;-80
2022/05/16 10:53:20;;;;;;;2.83;1.27;;;34.60;40.50;;;;;;5046198;28;20750;-80
2022/05/16 10:55:55;;;;;;;3.85;1.80;;;34.70;40.40;;;;;;5045522;28;20344;-80
2022/05/16 10:58:34;;;;;;;2.63;1.67;;;34.90;39.60;;;;;;5041507;28;20227;-79
2022/05/16 11:01:09;;;;;;;2.42;1.48;;;35.10;39.30;;;;;;5045934;28;20239;-79
2022/05/16 11:03:47;;;;;;;2.70;1.70;;;35.20;39.30;;;;;;5046678;28;20220;-79
2022/05/16 11:06:41;;;;;;;3.67;1.52;;;35.30;39.40;;;;;;5046228;28;20226;-79
2022/05/16 11:09:15;;;;;;;3.20;1.58;;;35.40;38.80;;;;;;5040180;28;20228;-80
2022/05/16 11:11:51;;;;;;;4.38;1.55;;;35.50;38.70;;;;;;5044723;28;20351;-80
2022/05/16 11:14:27;;;;;;;3.95;1.70;;;35.50;38.30;;;;;;5045733;28;20377;-79
2022/05/16 11:17:04;;;;;;;3.63;1.50;;;35.50;37.90;;;;;;5046661;28;20291;-80
2022/05/16 11:19:41;;;;;;;4.32;1.55;;;35.40;38.30;;;;;;5042808;28;20247;-80
2022/05/16 11:22:16;;;;;;;2.70;1.60;;;35.40;37.90;;;;;;5046489;28;20220;-80
2022/05/16 11:24:50;;;;;;;3.80;1.40;;;35.40;37.90;;;;;;5045878;28;20224;-80
2022/05/16 11:27:27;;;;;;;2.67;1.50;;;35.50;37.60;;;;;;5047407;28;20727;-80
2022/05/16 11:30:03;;;;;;;4.68;1.60;;;35.40;35.60;;;;;;5046970;28;20253;-79
2022/05/16 11:32:45;;;;;;;3.08;1.52;;;35.10;36.90;;;;;;5043343;28;20232;-79
2022/05/16 11:35:19;;;;;;;3.85;1.70;;;34.80;36.40;;;;;;5044268;28;20568;-79
2022/05/16 11:38:10;;;;;;;2.28;1.30;;;34.50;36.80;;;;;;5048066;28;20414;-80
2022/05/16 11:40:46;;;;;;;2.95;1.30;;;34.40;37.30;;;;;;5044875;28;20228;-79
2022/05/16 11:43:19;;;;;;;3.95;1.42;;;34.20;37.50;;;;;;5043340;28;20234;-80
2022/05/16 11:46:12;;;;;;;3.75;1.42;;;34.30;38.00;;;;;;5045191;28;20342;-79
2022/05/16 11:48:49;;;;;;;3.50;1.80;;;34.30;38.10;;;;;;5048020;28;20216;-80
2022/05/16 11:51:25;;;;;;;2.50;1.30;;;34.20;36.90;;;;;;5045061;28;20310;-79
2022/05/16 11:53:57;;;;;;;2.00;1.35;;;34.20;37.20;;;;;;5045053;28;20228;-80
2022/05/16 12:02:20;;;;;;;2.17;1.30;;;34.20;36.20;;;;;;5045587;28;20211;-80
2022/05/16 12:04:51;;;;;;;3.40;1.60;;;34.10;36.60;;;;;;5045818;28;20752;-79
2022/05/16 12:07:29;;;;;;;3.25;1.40;;;34.00;36.30;;;;;;5047376;28;20235;-80
2022/05/16 12:10:01;;;;;;;3.50;1.58;;;33.70;36.70;;;;;;5046137;28;20220;-80
2022/05/16 12:12:38;;;;;;;3.97;1.60;;;33.40;36.20;;;;;;5046938;28;20365;-80
2022/05/16 12:15:17;;;;;;;3.05;1.58;;;33.10;37.10;;;;;;5037559;28;20235;-79
2022/05/16 12:17:53;;;;;;;2.47;1.60;;;32.90;37.70;;;;;;5045912;28;20228;-80
2022/05/16 12:20:39;;;;;;;3.13;1.60;;;32.60;37.30;;;;;;5041141;28;20208;-79
2022/05/16 12:23:08;;;;;;;2.42;1.50;;;32.50;37.60;;;;;;5043551;28;20740;-79
2022/05/16 12:25:37;;;;;;;4.25;1.83;;;32.30;37.40;;;;;;5040181;28;20223;-78
2022/05/16 12:28:21;;;;;;;2.42;1.30;;;32.00;37.30;;;;;;5042793;28;20216;-79
2022/05/16 12:30:52;;;;;;;2.97;1.40;;;31.70;37.50;;;;;;5042927;28;20302;-78
2022/05/16 12:33:50;;;;;;;3.95;1.60;;;31.50;38.70;;;;;;5050091;28;20239;-79
2022/05/16 12:36:19;;;;;;;2.67;1.33;;;31.40;39.50;;;;;;5072848;28;20228;-78
2022/05/16 12:38:50;;;;;;;2.92;1.60;;;31.40;38.90;;;;;;5048415;28;20234;-78
2022/05/16 12:41:51;;;;;;;3.05;1.58;;;31.50;39.00;;;;;;5047239;28;20843;-79
2022/05/16 12:44:42;;;;;;;1.95;1.25;;;31.80;39.40;;;;;;5060415;28;20399;-78
2022/05/16 12:47:54;;;;;;;2.83;1.30;;;32.10;39.20;;;;;;5042795;28;20219;-79
2022/05/16 12:50:57;;;;;;;4.35;1.50;;;32.40;38.00;;;;;;5048786;28;20593;-79
2022/05/16 12:53:49;;;;;;;3.75;1.42;;;32.60;38.00;;;;;;5042610;28;20216;-79
2022/05/16 12:56:26;;;;;;;4.03;1.70;;;32.80;38.00;;;;;;5049441;28;20307;-79
2022/05/16 12:59:00;;;;;;;4.15;1.88;;;32.90;37.90;;;;;;5035866;28;20232;-79
2022/05/16 13:01:33;;;;;;;4.20;1.67;;;33.00;38.00;;;;;;5045745;28;20825;-79
2022/05/16 13:04:12;;;;;;;3.35;1.70;;;33.00;37.70;;;;;;5046154;28;20246;-79
2022/05/16 13:06:47;;;;;;;2.03;1.20;;;33.20;37.80;;;;;;5044139;28;20251;-79
2022/05/16 13:09:31;;;;;;;4.13;1.48;;;33.20;37.60;;;;;;5050463;28;20238;-79
2022/05/16 13:12:05;;;;;;;2.90;1.40;;;33.30;37.70;;;;;;5052315;28;20232;-79
2022/05/16 13:14:38;;;;;;;3.25;1.63;;;33.40;36.90;;;;;;5043590;28;20216;-78
2022/05/16 13:17:08;;;;;;;3.00;1.38;;;33.40;37.20;;;;;;5045626;28;20228;-79
2022/05/16 13:19:38;;;;;;;4.38;1.70;;;33.50;37.50;;;;;;5045012;28;20701;-79
2022/05/16 13:22:10;;;;;;;3.58;1.50;;;33.50;37.80;;;;;;5047597;28;20238;-79
2022/05/16 13:24:36;;;;;;;3.20;1.50;;;33.60;37.70;;;;;;5044179;28;20225;-79
2022/05/16 13:29:50;;;;;;;5.93;1.65;;;33.60;37.00;;;;;;5037265;28;20681;-79
2022/05/16 13:32:19;;;;;;;4.35;1.55;;;33.70;36.70;;;;;;5042217;28;20227;-78
2022/05/16 13:34:48;;;;;;;3.17;1.50;;;33.60;36.50;;;;;;5039337;28;20970;-79
2022/05/16 13:37:20;;;;;;;6.07;1.67;;;33.50;37.30;;;;;;5042353;28;20651;-78
2022/05/16 13:39:50;;;;;;;2.38;1.40;;;33.40;36.80;;;;;;5041600;28;20228;-79
2022/05/16 13:42:21;;;;;;;5.95;1.98;;;33.40;37.10;;;;;;5042807;28;20886;-78